createdAt,value
2023-12-02T00:02:26.612Z,5.70
2023-12-02T00:04:55.944Z,5.70
2023-12-02T00:07:23.016Z,5.70
2023-12-02T00:09:49.708Z,5.70
2023-12-02T00:12:16.486Z,5.70
2023-12-02T00:14:43.177Z,5.70
2023-12-02T00:17:09.954Z,5.60
2023-12-02T00:19:36.699Z,5.70
2023-12-02T00:22:05.595Z,5.60
2023-12-02T00:24:32.373Z,5.70
2023-12-02T00:26:59.103Z,5.80
2023-12-02T00:29:25.782Z,5.80
2023-12-02T00:31:52.430Z,5.60
2023-12-02T00:34:19.115Z,5.70
2023-12-02T00:36:49.761Z,5.60
2023-12-02T00:39:17.029Z,5.60
2023-12-02T00:41:43.893Z,5.70
2023-12-02T00:44:10.816Z,5.70
2023-12-02T00:46:37.729Z,5.70
2023-12-02T00:49:04.500Z,5.70
2023-12-02T00:51:31.262Z,5.70
2023-12-02T00:53:58.034Z,5.60
2023-12-02T00:56:24.757Z,5.60
2023-12-02T00:58:51.486Z,5.60
2023-12-02T01:01:18.239Z,5.70
2023-12-02T01:03:44.904Z,5.60
2023-12-02T01:06:11.679Z,5.50
2023-12-02T01:08:38.401Z,5.50
2023-12-02T01:11:05.312Z,5.60
2023-12-02T01:13:31.974Z,5.60
2023-12-02T01:15:59.344Z,5.60
2023-12-02T01:18:26.013Z,5.70
2023-12-02T01:20:52.742Z,5.60
2023-12-02T01:23:19.438Z,5.60
2023-12-02T01:25:46.102Z,5.50
2023-12-02T01:28:12.769Z,5.60
2023-12-02T01:30:39.459Z,5.60
2023-12-02T01:33:06.218Z,5.70
2023-12-02T01:35:33.011Z,5.70
2023-12-02T01:37:59.665Z,5.60
2023-12-02T01:40:26.387Z,5.60
2023-12-02T01:42:53.064Z,5.60
2023-12-02T01:45:19.966Z,5.50
2023-12-02T01:47:49.068Z,5.50
2023-12-02T01:50:18.049Z,5.50
2023-12-02T01:52:45.219Z,5.50
2023-12-02T01:55:11.930Z,5.50
2023-12-02T01:57:38.707Z,5.50
2023-12-02T02:00:06.196Z,5.50
2023-12-02T02:02:38.630Z,5.50
2023-12-02T02:05:05.879Z,5.50
2023-12-02T02:07:32.635Z,5.50
2023-12-02T02:09:59.347Z,5.50
2023-12-02T02:12:26.022Z,5.50
2023-12-02T02:14:53.435Z,5.40
2023-12-02T02:17:20.142Z,5.50
2023-12-02T02:19:46.899Z,5.50
2023-12-02T02:22:13.587Z,5.50
2023-12-02T02:24:41.404Z,5.50
2023-12-02T02:27:08.132Z,5.50
2023-12-02T02:29:34.862Z,5.50
2023-12-02T02:32:01.597Z,5.50
2023-12-02T02:34:29.114Z,5.50
2023-12-02T02:36:55.905Z,5.60
2023-12-02T02:39:23.622Z,5.60
2023-12-02T02:41:50.394Z,5.50
2023-12-02T02:44:17.146Z,5.50
2023-12-02T02:46:43.874Z,5.50
2023-12-02T02:49:10.684Z,5.50
2023-12-02T02:51:37.424Z,5.60
2023-12-02T02:54:04.287Z,5.60
2023-12-02T02:56:31.231Z,5.50
2023-12-02T02:58:58.023Z,5.50
2023-12-02T03:01:24.732Z,5.50
2023-12-02T03:03:51.657Z,5.60
2023-12-02T03:06:19.705Z,5.50
2023-12-02T03:08:46.414Z,5.50
2023-12-02T03:11:13.181Z,5.50
2023-12-02T03:13:39.892Z,5.50
2023-12-02T03:16:06.830Z,5.60
2023-12-02T03:18:33.596Z,5.50
2023-12-02T03:21:00.383Z,5.50
2023-12-02T03:23:27.170Z,5.50
2023-12-02T03:25:53.833Z,5.50
2023-12-02T03:28:22.432Z,5.60
2023-12-02T03:30:49.328Z,5.50
2023-12-02T03:33:16.100Z,5.50
2023-12-02T03:35:42.889Z,5.50
2023-12-02T03:38:09.629Z,5.50
2023-12-02T03:40:36.308Z,5.50
2023-12-02T03:43:02.987Z,5.50
2023-12-02T03:45:29.737Z,5.50
2023-12-02T03:47:56.650Z,5.50
2023-12-02T03:50:23.357Z,5.50
2023-12-02T03:52:50.508Z,5.50
2023-12-02T03:55:17.221Z,5.50
2023-12-02T03:57:43.927Z,5.40
2023-12-02T04:00:20.483Z,5.40
2023-12-02T04:02:47.260Z,5.40
2023-12-02T04:05:14.775Z,5.40
2023-12-02T04:07:42.731Z,5.40
2023-12-02T04:10:09.890Z,5.40
2023-12-02T04:12:37.650Z,5.50
2023-12-02T04:15:05.755Z,5.40
2023-12-02T04:17:32.602Z,5.40
2023-12-02T04:19:59.484Z,5.40
2023-12-02T04:22:26.126Z,5.50
2023-12-02T04:24:52.791Z,5.50
2023-12-02T04:27:19.486Z,5.50
2023-12-02T04:29:46.256Z,5.50
2023-12-02T04:32:13.064Z,5.50
2023-12-02T04:34:39.986Z,5.40
2023-12-02T04:37:07.076Z,5.50
2023-12-02T04:39:34.580Z,5.50
2023-12-02T04:42:01.577Z,5.50
2023-12-02T04:44:28.268Z,5.50
2023-12-02T04:46:54.990Z,5.50
2023-12-02T04:49:21.775Z,5.50
2023-12-02T04:51:49.006Z,5.50
2023-12-02T04:54:15.729Z,5.50
2023-12-02T04:56:42.570Z,5.50
2023-12-02T04:59:09.243Z,5.50
2023-12-02T05:01:36.020Z,5.50
2023-12-02T05:04:02.736Z,5.50
2023-12-02T05:06:30.446Z,5.50
2023-12-02T05:08:57.210Z,5.50
2023-12-02T05:11:24.194Z,5.50
2023-12-02T05:13:53.712Z,5.50
2023-12-02T05:16:20.984Z,5.40
2023-12-02T05:18:47.845Z,5.50
2023-12-02T05:21:16.729Z,5.50
2023-12-02T05:23:43.397Z,5.50
2023-12-02T05:26:10.222Z,5.50
2023-12-02T05:28:38.773Z,5.50
2023-12-02T05:31:06.161Z,5.50
2023-12-02T05:33:32.973Z,5.40
2023-12-02T05:35:59.755Z,5.40
2023-12-02T05:38:26.464Z,5.50
2023-12-02T05:40:53.496Z,5.40
2023-12-02T05:43:20.207Z,5.40
2023-12-02T05:45:48.170Z,5.40
2023-12-02T05:48:16.193Z,5.50
2023-12-02T05:50:43.040Z,5.50
2023-12-02T05:53:09.744Z,5.50
2023-12-02T05:55:36.422Z,5.50
2023-12-02T05:58:03.183Z,5.50
2023-12-02T06:00:29.982Z,5.50
2023-12-02T06:02:56.906Z,5.50
2023-12-02T06:05:23.824Z,5.50
2023-12-02T06:07:50.516Z,5.50
2023-12-02T06:10:17.618Z,5.50
2023-12-02T06:12:44.384Z,5.50
2023-12-02T06:15:12.668Z,5.50
2023-12-02T06:17:40.598Z,5.50
2023-12-02T06:20:08.161Z,5.40
2023-12-02T06:22:35.015Z,5.50
2023-12-02T06:25:02.295Z,5.40
2023-12-02T06:27:29.251Z,5.40
2023-12-02T06:29:55.950Z,5.50
2023-12-02T06:32:22.654Z,5.50
2023-12-02T06:34:50.188Z,5.50
2023-12-02T06:37:16.845Z,5.40
2023-12-02T06:39:43.590Z,5.40
2023-12-02T06:42:10.328Z,5.40
2023-12-02T06:44:37.066Z,5.40
2023-12-02T06:47:04.042Z,5.40
2023-12-02T06:49:30.801Z,5.40
2023-12-02T06:51:57.510Z,5.50
2023-12-02T06:54:24.250Z,5.50
2023-12-02T06:56:51.544Z,5.50
2023-12-02T06:59:18.218Z,5.50
2023-12-02T07:01:46.148Z,5.50
2023-12-02T07:04:13.335Z,5.50
2023-12-02T07:06:41.481Z,5.50
2023-12-02T07:09:09.373Z,5.50
2023-12-02T07:11:36.175Z,5.50
2023-12-02T07:14:04.191Z,5.50
2023-12-02T07:16:31.019Z,5.50
2023-12-02T07:18:58.167Z,5.50
2023-12-02T07:21:24.913Z,5.60
2023-12-02T07:23:54.149Z,5.70
2023-12-02T07:26:20.873Z,5.70
2023-12-02T07:28:47.544Z,5.60
2023-12-02T07:31:15.523Z,5.60
2023-12-02T07:33:42.993Z,5.60
2023-12-02T07:36:10.467Z,5.60
2023-12-02T07:38:37.218Z,5.50
2023-12-02T07:41:03.959Z,5.50
2023-12-02T07:43:30.717Z,5.50
2023-12-02T07:45:57.471Z,5.50
2023-12-02T07:48:24.200Z,5.50
2023-12-02T07:50:50.962Z,5.50
2023-12-02T07:53:17.653Z,5.50
2023-12-02T07:55:47.037Z,5.50
2023-12-02T07:58:13.949Z,5.50
2023-12-02T08:00:40.624Z,5.50
2023-12-02T08:03:07.252Z,5.50
2023-12-02T08:08:04.333Z,5.50
2023-12-02T08:10:31.034Z,5.50
2023-12-02T08:12:57.716Z,5.50
2023-12-02T08:15:24.407Z,5.60
2023-12-02T08:17:51.115Z,5.50
2023-12-02T08:20:17.947Z,5.50
2023-12-02T08:22:44.733Z,5.50
2023-12-02T08:25:11.504Z,5.50
2023-12-02T08:27:38.156Z,5.50
2023-12-02T08:30:06.321Z,5.50
2023-12-02T08:32:33.108Z,5.50
2023-12-02T08:35:00.112Z,5.50
2023-12-02T08:37:27.297Z,5.50
2023-12-02T08:39:54.439Z,5.50
2023-12-02T08:42:21.117Z,5.50
2023-12-02T08:44:47.841Z,5.50
2023-12-02T08:47:14.523Z,5.50
2023-12-02T08:49:41.210Z,5.50
2023-12-02T08:52:07.984Z,5.60
2023-12-02T08:54:34.687Z,5.50
2023-12-02T08:57:01.504Z,5.50
2023-12-02T08:59:28.203Z,5.50
2023-12-02T09:01:55.036Z,5.50
2023-12-02T09:04:21.799Z,5.50
2023-12-02T09:06:49.547Z,5.50
2023-12-02T09:09:16.200Z,5.40
2023-12-02T09:11:43.028Z,5.50
2023-12-02T09:14:09.833Z,5.60
2023-12-02T09:16:36.745Z,5.70
2023-12-02T09:19:24.337Z,5.60
2023-12-02T09:21:51.062Z,5.70
2023-12-02T09:24:35.225Z,5.60
2023-12-02T09:27:09.196Z,5.60
2023-12-02T09:29:38.362Z,5.60
2023-12-02T09:32:26.511Z,5.50
2023-12-02T09:34:58.753Z,5.60
2023-12-02T09:37:56.148Z,5.70
2023-12-02T09:40:23.999Z,5.70
2023-12-02T09:43:22.344Z,5.60
2023-12-02T09:46:25.280Z,5.60
2023-12-02T09:49:10.554Z,5.60
2023-12-02T09:51:52.719Z,5.70
2023-12-02T09:54:39.731Z,5.70
2023-12-02T09:57:18.202Z,5.70
2023-12-02T10:00:13.517Z,5.90
2023-12-02T10:03:12.800Z,6.00
2023-12-02T10:05:56.066Z,5.90
2023-12-02T10:08:27.499Z,5.80
2023-12-02T10:11:03.708Z,5.80
2023-12-02T10:13:43.177Z,5.70
2023-12-02T10:16:16.251Z,5.70
2023-12-02T10:18:50.840Z,5.70
2023-12-02T10:21:20.762Z,5.70
2023-12-02T10:24:09.309Z,5.70
2023-12-02T10:26:47.769Z,5.80
2023-12-02T10:29:30.955Z,5.80
2023-12-02T10:32:19.230Z,5.80
2023-12-02T10:34:57.991Z,5.80
2023-12-02T10:37:50.712Z,5.80
2023-12-02T10:40:23.827Z,5.80
2023-12-02T10:42:58.482Z,5.80
2023-12-02T10:45:26.588Z,5.80
2023-12-02T10:47:54.155Z,5.80
2023-12-02T10:50:21.932Z,5.80
2023-12-02T10:53:01.156Z,5.80
2023-12-02T10:55:32.284Z,5.80
2023-12-02T10:58:03.338Z,5.80
2023-12-02T11:00:34.349Z,5.90
2023-12-02T11:03:21.013Z,5.80
2023-12-02T11:06:10.971Z,5.90
2023-12-02T11:09:06.327Z,5.90
2023-12-02T11:12:06.116Z,5.90
2023-12-02T11:14:40.907Z,6.00
2023-12-02T11:17:16.303Z,6.00
2023-12-02T11:20:16.405Z,6.00
2023-12-02T11:23:04.696Z,6.00
2023-12-02T11:25:37.148Z,6.00
2023-12-02T11:28:13.731Z,6.00
2023-12-02T11:31:07.451Z,6.00
2023-12-02T11:34:04.566Z,6.10
2023-12-02T11:36:46.446Z,6.10
2023-12-02T11:39:30.298Z,6.20
2023-12-02T11:42:00.011Z,6.20
2023-12-02T11:44:49.343Z,6.20
2023-12-02T11:47:53.056Z,6.20
2023-12-02T11:50:26.864Z,6.10
2023-12-02T11:53:18.196Z,6.10
2023-12-02T11:55:57.910Z,6.10
2023-12-02T11:58:43.283Z,6.20
2023-12-02T12:01:51.356Z,6.20
2023-12-02T12:04:36.401Z,6.20
2023-12-02T12:07:36.055Z,6.10
2023-12-02T12:10:25.114Z,6.10
2023-12-02T12:12:56.315Z,6.10
2023-12-02T12:15:23.007Z,6.20
2023-12-02T12:17:49.806Z,6.10
2023-12-02T12:20:24.400Z,6.20
2023-12-02T12:22:51.597Z,6.20
2023-12-02T12:25:18.524Z,6.20
2023-12-02T12:27:45.654Z,6.20
2023-12-02T12:30:12.522Z,6.20
2023-12-02T12:32:40.165Z,6.20
2023-12-02T12:35:12.074Z,6.20
2023-12-02T12:37:41.474Z,6.30
2023-12-02T12:40:12.830Z,6.20
2023-12-02T12:42:49.827Z,6.20
2023-12-02T12:45:17.101Z,6.30
2023-12-02T12:47:43.971Z,6.20
2023-12-02T12:50:16.022Z,6.20
2023-12-02T12:52:54.005Z,6.20
2023-12-02T12:55:25.488Z,6.30
2023-12-02T12:58:08.663Z,6.20
2023-12-02T13:00:39.349Z,6.30
2023-12-02T13:03:34.300Z,6.30
2023-12-02T13:06:13.094Z,6.30
2023-12-02T13:08:51.829Z,6.30
2023-12-02T13:11:28.274Z,6.40
2023-12-02T13:14:17.668Z,6.40
2023-12-02T13:16:44.637Z,6.40
2023-12-02T13:19:13.317Z,6.40
2023-12-02T13:21:42.902Z,6.50
2023-12-02T13:24:11.646Z,6.50
2023-12-02T13:26:40.265Z,6.50
2023-12-02T13:29:10.466Z,6.40
2023-12-02T13:31:41.016Z,6.30
2023-12-02T13:34:14.180Z,6.30
2023-12-02T13:36:47.435Z,6.30
2023-12-02T13:39:28.586Z,6.30
2023-12-02T13:41:56.651Z,6.30
2023-12-02T13:44:24.183Z,6.30
2023-12-02T13:46:50.985Z,6.30
2023-12-02T13:49:32.888Z,6.40
2023-12-02T13:52:23.851Z,6.40
2023-12-02T13:54:56.178Z,6.40
2023-12-02T13:57:43.774Z,6.30
2023-12-02T14:00:12.447Z,6.20
2023-12-02T14:02:45.220Z,6.30
2023-12-02T14:05:20.792Z,6.30
2023-12-02T14:07:49.493Z,6.40
2023-12-02T14:10:20.940Z,6.30
2023-12-02T14:13:04.389Z,6.30
2023-12-02T14:16:00.789Z,6.30
2023-12-02T14:19:05.482Z,6.30
2023-12-02T14:22:05.212Z,6.30
2023-12-02T14:25:06.285Z,6.30
2023-12-02T14:28:22.340Z,6.30
2023-12-02T14:31:17.079Z,6.20
2023-12-02T14:34:18.584Z,6.20
2023-12-02T14:37:05.104Z,6.20
2023-12-02T14:39:37.603Z,6.20
2023-12-02T14:42:27.321Z,6.20
2023-12-02T14:44:55.674Z,6.10
2023-12-02T14:47:22.438Z,6.10
2023-12-02T14:49:50.547Z,6.10
2023-12-02T14:52:24.123Z,6.10
2023-12-02T14:54:51.972Z,6.10
2023-12-02T14:57:23.629Z,6.20
2023-12-02T14:59:54.257Z,6.30
2023-12-02T15:02:37.432Z,6.30
2023-12-02T15:05:08.423Z,6.30
2023-12-02T15:07:53.238Z,6.30
2023-12-02T15:10:29.862Z,6.30
2023-12-02T15:13:05.974Z,6.20
2023-12-02T15:15:36.341Z,6.20
2023-12-02T15:18:08.570Z,6.20
2023-12-02T15:20:35.710Z,6.20
2023-12-02T15:23:17.783Z,6.20
2023-12-02T15:25:48.395Z,6.30
2023-12-02T15:28:19.345Z,6.30
2023-12-02T15:30:46.386Z,6.30
2023-12-02T15:33:17.031Z,6.20
2023-12-02T15:35:47.258Z,6.20
2023-12-02T15:38:14.009Z,6.30
2023-12-02T15:40:40.764Z,6.30
2023-12-02T15:43:08.208Z,6.20
2023-12-02T15:45:35.038Z,6.30
2023-12-02T15:48:01.883Z,6.30
2023-12-02T15:50:28.675Z,6.40
2023-12-02T15:52:56.521Z,6.30
2023-12-02T15:55:23.624Z,6.40
2023-12-02T15:57:50.379Z,6.40
2023-12-02T16:00:17.264Z,6.40
2023-12-02T16:02:45.571Z,6.40
2023-12-02T16:05:17.601Z,6.40
2023-12-02T16:07:45.046Z,6.30
2023-12-02T16:10:14.487Z,6.40
2023-12-02T16:12:48.892Z,6.30
2023-12-02T16:15:16.454Z,6.20
2023-12-02T16:17:43.869Z,6.30
2023-12-02T16:20:14.299Z,6.30
2023-12-02T16:22:42.584Z,6.20
2023-12-02T16:25:09.728Z,6.20
2023-12-02T16:27:37.426Z,6.20
2023-12-02T16:30:04.736Z,6.20
2023-12-02T16:32:31.849Z,6.30
2023-12-02T16:34:58.829Z,6.30
2023-12-02T16:37:25.556Z,6.20
2023-12-02T16:39:52.259Z,6.20
2023-12-02T16:42:19.024Z,6.10
2023-12-02T16:44:45.744Z,6.10
2023-12-02T16:47:46.651Z,6.00
2023-12-02T16:50:18.596Z,6.00
2023-12-02T16:52:52.746Z,6.00
2023-12-02T16:55:19.880Z,6.00
2023-12-02T16:57:50.705Z,6.00
2023-12-02T17:00:22.421Z,6.00
2023-12-02T17:02:49.780Z,6.00
2023-12-02T17:05:31.493Z,6.00
2023-12-02T17:08:22.564Z,5.90
2023-12-02T17:11:05.118Z,5.80
2023-12-02T17:13:51.238Z,5.80
2023-12-02T17:16:54.468Z,6.10
2023-12-02T17:19:21.574Z,6.20
2023-12-02T17:21:51.218Z,6.00
2023-12-02T17:24:34.586Z,6.00
2023-12-02T17:27:02.625Z,6.00
2023-12-02T17:29:33.257Z,5.90
2023-12-02T17:32:00.061Z,5.80
2023-12-02T17:34:27.967Z,5.90
2023-12-02T17:36:55.655Z,5.80
2023-12-02T17:39:23.430Z,5.80
2023-12-02T17:41:50.582Z,5.80
2023-12-02T17:44:18.925Z,5.80
2023-12-02T17:46:46.518Z,5.90
2023-12-02T17:49:14.590Z,5.80
2023-12-02T17:51:42.569Z,5.90
2023-12-02T17:54:09.641Z,5.90
2023-12-02T17:56:37.161Z,5.90
2023-12-02T17:59:04.373Z,5.80
2023-12-02T18:01:31.229Z,5.80
2023-12-02T18:03:57.954Z,5.80
2023-12-02T18:06:24.748Z,5.80
2023-12-02T18:08:52.347Z,5.90
2023-12-02T18:11:19.582Z,5.90
2023-12-02T18:13:46.528Z,5.80
2023-12-02T18:16:13.430Z,5.80
2023-12-02T18:18:40.218Z,5.80
2023-12-02T18:21:07.174Z,5.80
2023-12-02T18:23:33.939Z,5.90
2023-12-02T18:26:00.689Z,5.90
2023-12-02T18:28:27.382Z,5.80
2023-12-02T18:30:54.122Z,5.80
2023-12-02T18:33:21.221Z,5.80
2023-12-02T18:35:48.112Z,5.80
2023-12-02T18:38:14.834Z,5.80
2023-12-02T18:40:41.604Z,5.80
2023-12-02T18:43:08.370Z,5.90
2023-12-02T18:45:35.097Z,5.90
2023-12-02T18:48:02.678Z,5.80
2023-12-02T18:50:29.681Z,5.90
2023-12-02T18:52:56.504Z,5.80
2023-12-02T18:55:23.236Z,5.80
2023-12-02T18:57:50.284Z,5.80
2023-12-02T19:00:17.240Z,5.90
2023-12-02T19:02:43.988Z,5.80
2023-12-02T19:05:12.258Z,5.80
2023-12-02T19:07:39.233Z,5.80
2023-12-02T19:10:06.476Z,5.80
2023-12-02T19:12:33.209Z,5.90
2023-12-02T19:15:00.032Z,5.80
2023-12-02T19:17:26.749Z,5.80
2023-12-02T19:19:53.482Z,5.80
2023-12-02T19:22:20.206Z,5.80
2023-12-02T19:24:46.927Z,5.80
2023-12-02T19:27:14.279Z,5.80
2023-12-02T19:29:41.072Z,5.80
2023-12-02T19:32:10.050Z,5.80
2023-12-02T19:34:38.110Z,5.80
2023-12-02T19:37:05.223Z,5.80
2023-12-02T19:39:32.389Z,5.80
2023-12-02T19:41:59.199Z,5.80
2023-12-02T19:44:26.157Z,5.80
2023-12-02T19:46:57.610Z,5.80
2023-12-02T19:49:25.353Z,5.80
2023-12-02T19:51:52.309Z,5.80
2023-12-02T19:54:19.310Z,5.80
2023-12-02T19:56:50.520Z,5.90
2023-12-02T19:59:20.286Z,5.80
2023-12-02T20:01:47.114Z,5.80
2023-12-02T20:04:14.174Z,5.80
2023-12-02T20:06:42.162Z,5.70
2023-12-02T20:09:09.362Z,5.70
2023-12-02T20:11:44.679Z,5.80
2023-12-02T20:14:14.142Z,5.70
2023-12-02T20:16:40.878Z,5.60
2023-12-02T20:19:08.147Z,5.70
2023-12-02T20:21:36.315Z,5.60
2023-12-02T20:24:07.123Z,5.60
2023-12-02T20:26:33.965Z,5.60
2023-12-02T20:29:03.402Z,5.60
2023-12-02T20:31:30.199Z,5.60
2023-12-02T20:34:00.076Z,5.60
2023-12-02T20:36:26.997Z,5.60
2023-12-02T20:38:53.743Z,5.50
2023-12-02T20:41:20.766Z,5.50
2023-12-02T20:43:48.110Z,5.60
2023-12-02T20:46:15.251Z,5.60
2023-12-02T20:48:43.133Z,5.60
2023-12-02T20:51:11.051Z,5.60
2023-12-02T20:53:38.076Z,5.60
2023-12-02T20:56:05.316Z,5.60
2023-12-02T20:58:32.264Z,5.70
2023-12-02T21:00:59.284Z,5.70
2023-12-02T21:03:26.118Z,5.70
2023-12-02T21:05:52.823Z,5.60
2023-12-02T21:08:19.676Z,5.70
2023-12-02T21:10:46.937Z,5.70
2023-12-02T21:13:13.799Z,5.60
2023-12-02T21:15:43.637Z,5.70
2023-12-02T21:18:14.712Z,5.60
2023-12-02T21:20:41.625Z,5.60
2023-12-02T21:23:09.159Z,5.60
2023-12-02T21:25:36.358Z,5.70
2023-12-02T21:28:04.994Z,5.70
2023-12-02T21:30:42.364Z,5.70
2023-12-02T21:33:10.967Z,5.70
2023-12-02T21:35:44.136Z,5.70
2023-12-02T21:38:45.689Z,5.60
2023-12-02T21:41:19.132Z,5.60
2023-12-02T21:43:47.244Z,5.60
2023-12-02T21:46:28.897Z,5.50
2023-12-02T21:49:04.375Z,5.50
2023-12-02T21:51:42.958Z,5.40
2023-12-02T21:54:14.842Z,5.40
2023-12-02T21:56:45.564Z,5.40
2023-12-02T21:59:21.902Z,5.50
2023-12-02T22:01:55.876Z,5.50
2023-12-02T22:04:24.713Z,5.50
2023-12-02T22:07:04.734Z,5.50
2023-12-02T22:09:40.592Z,5.60
2023-12-02T22:12:16.253Z,5.60
2023-12-02T22:14:44.339Z,5.50
2023-12-02T22:17:16.377Z,5.50
2023-12-02T22:19:43.960Z,5.40
2023-12-02T22:22:36.511Z,5.40
2023-12-02T22:25:05.300Z,5.40
2023-12-02T22:27:38.916Z,5.40
2023-12-02T22:30:18.774Z,5.40
2023-12-02T22:32:54.369Z,5.50
2023-12-02T22:35:27.008Z,5.60
2023-12-02T22:37:55.168Z,5.60
2023-12-02T22:40:33.062Z,5.50
2023-12-02T22:43:05.004Z,5.70
2023-12-02T22:45:36.189Z,5.60
2023-12-02T22:48:14.110Z,5.60
2023-12-02T22:50:44.322Z,5.60
2023-12-02T22:53:27.064Z,5.50
2023-12-02T22:55:59.405Z,5.50
2023-12-02T22:58:26.626Z,5.50
2023-12-02T23:00:57.310Z,5.60
2023-12-02T23:03:25.774Z,5.60
2023-12-02T23:05:58.146Z,5.60
2023-12-02T23:08:29.454Z,5.60
2023-12-02T23:10:56.735Z,5.60
2023-12-02T23:13:38.469Z,5.60
2023-12-02T23:16:07.372Z,5.60
2023-12-02T23:18:34.711Z,5.60
2023-12-02T23:21:01.996Z,5.60
2023-12-02T23:23:31.039Z,5.60
2023-12-02T23:25:57.821Z,5.60
2023-12-02T23:28:24.671Z,5.60
2023-12-02T23:30:51.390Z,5.60
2023-12-02T23:33:18.329Z,5.60
2023-12-02T23:35:45.184Z,5.60
2023-12-02T23:38:12.076Z,5.60
2023-12-02T23:40:45.772Z,5.60
2023-12-02T23:43:30.674Z,5.60
2023-12-02T23:45:57.487Z,5.70
2023-12-02T23:48:24.340Z,5.70
2023-12-02T23:50:51.120Z,5.60
2023-12-02T23:53:17.803Z,5.60
2023-12-02T23:55:44.522Z,5.60
2023-12-02T23:58:13.523Z,5.60
